Rochester, MN (55905)

1:31 PM CDT on August 01, 2015 (GMT -0500)
Honeckland, Elton Hills | | Change Station
CLOSE
Current Station
Personal Weather Station
Location: Rochester, MN
Elevation: 1037 ft
Nearby Weather Stations

Elev 1037 ft 44.05 °N, 92.48 °W | Updated 7 minutes ago

Clear
Clear
83.1 °F
Feels Like 85 °F
N
4.2
Wind Variable Wind from West

Today
High -- | Low -- °F
--% Chance of Precip.
Yesterday
High -- | Low -- °F
Precip. -- in
5:57 AM 8:34 PM
Full, 98% visible
Pressure 29.97 in
Visibility 10.0 miles
Clouds Clear
Heat Index 85 °F
Dew Point 65 °F
Humidity 55%
Rainfall 0.34 in
Snow Depth Not available.
UV 10 out of 12
Pollen 7.00 out of 12
Air Quality Not available.
Flu Activity Not available.
METAR K9MN 011813Z AUTO 00000KT 10SM CLR 26/17 A2997 RMK AO1 T02640174

More Conditions Fewer Conditions

Pressure 29.97 in
Visibility 10.0 miles
Clouds Clear
Heat Index 85 °F
Dew Point 65 °F
Humidity 55%
Rainfall 0.34 in
Snow Depth Not available.
UV 10 out of 12
Pollen 7.00 out of 12
Air Quality Not available.
Flu Activity Not available.
METAR K9MN 011813Z AUTO 00000KT 10SM CLR 26/17 A2997 RMK AO1 T02640174

More Conditions Fewer Conditions

10-Day Weather Forecast

×

Almanac

Astronomy

Aug. 01, 2015 Rise Set
Actual Time
Civil Twilight
Nautical Twilight
Astronomical Twilight
Moon
Length of Visible Light
Length of Day
Tomorrow will be .
, % of the Moon is Illuminated

Today's Extremes

State Highs State Lows

Community

WunderPhotos

Upload Photos

1,843,014 photos uploaded!

WunderBlogs® & News

Nearby

Air Quality

  Air Quality AQ Index Pollutant
Not available.

Snow Depth

Station Depth Elevation

Earthquake Activity

City Distance Mag. Time & Date
Minimum magnitude displayed is 2.5.

Coastal Water Temperatures

Place Temperature

Stations

Nearby Weather Stations

Station Location Temp. Windchill Dew Point Humidity Wind Precip. Elev Updated Type